sensor_id;sensor_type;location;lat;lon;timestamp;pressure;altitude;pressure_sealevel;temperature;humidity
13235;BME280;6683;48.506;9.050;2023-06-14T00:01:02;97584.66;;;15.58;36.73
13235;BME280;6683;48.506;9.050;2023-06-14T00:04:06;97585.13;;;15.55;37.05
13235;BME280;6683;48.506;9.050;2023-06-14T00:07:09;97589.28;;;15.51;37.22
13235;BME280;6683;48.506;9.050;2023-06-14T00:10:15;97589.19;;;15.46;37.29
13235;BME280;6683;48.506;9.050;2023-06-14T00:13:19;97595.97;;;15.42;37.46
13235;BME280;6683;48.506;9.050;2023-06-14T00:16:21;97584.75;;;15.40;37.46
13235;BME280;6683;48.506;9.050;2023-06-14T00:19:23;97596.69;;;15.37;37.88
13235;BME280;6683;48.506;9.050;2023-06-14T00:22:26;97591.22;;;15.32;37.91
13235;BME280;6683;48.506;9.050;2023-06-14T00:25:29;97590.88;;;15.29;37.97
13235;BME280;6683;48.506;9.050;2023-06-14T00:28:32;97585.44;;;15.23;38.15
13235;BME280;6683;48.506;9.050;2023-06-14T00:31:35;97594.09;;;15.19;38.35
13235;BME280;6683;48.506;9.050;2023-06-14T00:34:37;97597.25;;;15.16;38.55
13235;BME280;6683;48.506;9.050;2023-06-14T00:37:40;97594.00;;;15.14;38.49
13235;BME280;6683;48.506;9.050;2023-06-14T00:40:42;97588.09;;;15.12;38.75
13235;BME280;6683;48.506;9.050;2023-06-14T00:43:46;97583.81;;;15.11;38.84
13235;BME280;6683;48.506;9.050;2023-06-14T00:46:48;97592.84;;;15.10;38.90
13235;BME280;6683;48.506;9.050;2023-06-14T00:49:51;97595.50;;;15.10;39.10
13235;BME280;6683;48.506;9.050;2023-06-14T00:52:55;97589.38;;;15.09;39.22
13235;BME280;6683;48.506;9.050;2023-06-14T00:55:58;97585.66;;;15.10;39.10
13235;BME280;6683;48.506;9.050;2023-06-14T00:59:03;97592.84;;;15.10;39.46
13235;BME280;6683;48.506;9.050;2023-06-14T01:02:05;97588.78;;;15.07;39.42
13235;BME280;6683;48.506;9.050;2023-06-14T01:05:08;97592.72;;;15.05;39.49
13235;BME280;6683;48.506;9.050;2023-06-14T01:08:23;97590.50;;;15.02;39.59
13235;BME280;6683;48.506;9.050;2023-06-14T01:11:31;97599.38;;;14.96;39.67
13235;BME280;6683;48.506;9.050;2023-06-14T01:14:36;97598.47;;;14.90;39.71
13235;BME280;6683;48.506;9.050;2023-06-14T01:17:41;97602.47;;;14.81;39.72
13235;BME280;6683;48.506;9.050;2023-06-14T01:20:47;97599.78;;;14.70;39.77
13235;BME280;6683;48.506;9.050;2023-06-14T01:23:52;97596.31;;;14.58;39.94
13235;BME280;6683;48.506;9.050;2023-06-14T01:26:56;97591.75;;;14.47;40.01
13235;BME280;6683;48.506;9.050;2023-06-14T01:29:59;97601.28;;;14.36;40.26
13235;BME280;6683;48.506;9.050;2023-06-14T01:33:05;97597.50;;;14.25;40.17
13235;BME280;6683;48.506;9.050;2023-06-14T01:36:08;97600.72;;;14.16;40.38
13235;BME280;6683;48.506;9.050;2023-06-14T01:39:14;97601.44;;;14.05;40.56
13235;BME280;6683;48.506;9.050;2023-06-14T01:42:18;97602.78;;;13.96;40.83
13235;BME280;6683;48.506;9.050;2023-06-14T01:45:21;97605.72;;;13.88;41.04
13235;BME280;6683;48.506;9.050;2023-06-14T01:48:24;97608.69;;;13.80;41.22
13235;BME280;6683;48.506;9.050;2023-06-14T01:51:26;97607.28;;;13.77;41.21
13235;BME280;6683;48.506;9.050;2023-06-14T01:54:30;97605.66;;;13.76;41.49
13235;BME280;6683;48.506;9.050;2023-06-14T01:57:32;97604.25;;;13.74;41.75
13235;BME280;6683;48.506;9.050;2023-06-14T02:00:35;97613.91;;;13.68;41.89
13235;BME280;6683;48.506;9.050;2023-06-14T02:03:38;97606.84;;;13.62;41.89
13235;BME280;6683;48.506;9.050;2023-06-14T02:06:40;97605.28;;;13.54;42.10
13235;BME280;6683;48.506;9.050;2023-06-14T02:09:44;97614.34;;;13.47;42.06
13235;BME280;6683;48.506;9.050;2023-06-14T02:12:46;97611.16;;;13.38;42.26
13235;BME280;6683;48.506;9.050;2023-06-14T02:15:49;97609.78;;;13.29;42.11
13235;BME280;6683;48.506;9.050;2023-06-14T02:18:54;97617.00;;;13.22;42.46
13235;BME280;6683;48.506;9.050;2023-06-14T02:21:56;97622.13;;;13.17;42.47
13235;BME280;6683;48.506;9.050;2023-06-14T02:25:00;97615.28;;;13.10;42.58
13235;BME280;6683;48.506;9.050;2023-06-14T02:28:02;97612.66;;;13.03;42.68
13235;BME280;6683;48.506;9.050;2023-06-14T02:31:05;97619.00;;;12.96;42.87
13235;BME280;6683;48.506;9.050;2023-06-14T02:34:07;97611.31;;;12.88;43.05
13235;BME280;6683;48.506;9.050;2023-06-14T02:37:10;97617.47;;;12.81;42.83
13235;BME280;6683;48.506;9.050;2023-06-14T02:40:15;97616.50;;;12.76;43.29
13235;BME280;6683;48.506;9.050;2023-06-14T02:43:17;97611.84;;;12.71;43.32
13235;BME280;6683;48.506;9.050;2023-06-14T02:46:20;97613.31;;;12.67;43.51
13235;BME280;6683;48.506;9.050;2023-06-14T02:49:22;97611.28;;;12.63;43.89
13235;BME280;6683;48.506;9.050;2023-06-14T02:52:26;97612.53;;;12.60;43.65
13235;BME280;6683;48.506;9.050;2023-06-14T02:55:29;97618.25;;;12.57;43.94
13235;BME280;6683;48.506;9.050;2023-06-14T02:58:31;97618.44;;;12.56;44.01
13235;BME280;6683;48.506;9.050;2023-06-14T03:01:34;97614.19;;;12.55;44.12
13235;BME280;6683;48.506;9.050;2023-06-14T03:04:42;97616.84;;;12.55;44.27
13235;BME280;6683;48.506;9.050;2023-06-14T03:07:45;97619.50;;;12.55;44.78
13235;BME280;6683;48.506;9.050;2023-06-14T03:10:49;97628.84;;;12.57;44.63
13235;BME280;6683;48.506;9.050;2023-06-14T03:13:52;97624.97;;;12.60;44.89
13235;BME280;6683;48.506;9.050;2023-06-14T03:16:54;97628.00;;;12.63;45.13
13235;BME280;6683;48.506;9.050;2023-06-14T03:19:57;97633.44;;;12.68;45.04
13235;BME280;6683;48.506;9.050;2023-06-14T03:23:01;97637.09;;;12.74;45.25
13235;BME280;6683;48.506;9.050;2023-06-14T03:26:05;97645.19;;;12.79;44.83
13235;BME280;6683;48.506;9.050;2023-06-14T03:29:07;97647.44;;;12.82;45.17
13235;BME280;6683;48.506;9.050;2023-06-14T03:32:09;97643.75;;;12.83;45.38
13235;BME280;6683;48.506;9.050;2023-06-14T03:35:11;97645.41;;;12.77;45.05
13235;BME280;6683;48.506;9.050;2023-06-14T03:38:17;97644.63;;;12.70;45.16
13235;BME280;6683;48.506;9.050;2023-06-14T03:41:21;97645.50;;;12.64;44.93
13235;BME280;6683;48.506;9.050;2023-06-14T03:44:23;97649.81;;;12.59;45.14
13235;BME280;6683;48.506;9.050;2023-06-14T03:47:26;97656.78;;;12.53;45.26
13235;BME280;6683;48.506;9.050;2023-06-14T03:50:29;97656.81;;;12.47;45.21
13235;BME280;6683;48.506;9.050;2023-06-14T03:53:33;97656.59;;;12.42;45.15
13235;BME280;6683;48.506;9.050;2023-06-14T03:56:38;97658.06;;;12.38;45.60
13235;BME280;6683;48.506;9.050;2023-06-14T03:59:40;97661.13;;;12.35;45.46
13235;BME280;6683;48.506;9.050;2023-06-14T04:02:42;97673.78;;;12.33;45.81
13235;BME280;6683;48.506;9.050;2023-06-14T04:05:46;97676.81;;;12.30;45.45
13235;BME280;6683;48.506;9.050;2023-06-14T04:08:50;97679.88;;;12.27;45.88
13235;BME280;6683;48.506;9.050;2023-06-14T04:11:54;97686.59;;;12.23;45.78
13235;BME280;6683;48.506;9.050;2023-06-14T04:14:57;97682.56;;;12.20;45.81
13235;BME280;6683;48.506;9.050;2023-06-14T04:17:59;97686.22;;;12.19;45.78
13235;BME280;6683;48.506;9.050;2023-06-14T04:21:02;97694.16;;;12.19;46.07
13235;BME280;6683;48.506;9.050;2023-06-14T04:24:05;97692.34;;;12.20;46.15
13235;BME280;6683;48.506;9.050;2023-06-14T04:27:09;97694.53;;;12.23;46.33
13235;BME280;6683;48.506;9.050;2023-06-14T04:30:11;97697.41;;;12.28;46.47
13235;BME280;6683;48.506;9.050;2023-06-14T04:33:14;97701.25;;;12.32;46.54
13235;BME280;6683;48.506;9.050;2023-06-14T04:36:18;97703.06;;;12.38;46.72
13235;BME280;6683;48.506;9.050;2023-06-14T04:39:20;97700.78;;;12.41;46.68
13235;BME280;6683;48.506;9.050;2023-06-14T04:42:25;97705.47;;;12.46;46.94
13235;BME280;6683;48.506;9.050;2023-06-14T04:45:32;97709.91;;;12.52;46.98
13235;BME280;6683;48.506;9.050;2023-06-14T04:48:34;97711.94;;;12.56;47.23
13235;BME280;6683;48.506;9.050;2023-06-14T04:51:37;97718.63;;;12.65;47.17
13235;BME280;6683;48.506;9.050;2023-06-14T04:54:39;97717.38;;;12.74;46.80
13235;BME280;6683;48.506;9.050;2023-06-14T04:57:45;97713.19;;;12.85;46.97
13235;BME280;6683;48.506;9.050;2023-06-14T05:00:48;97714.56;;;13.01;47.29
13235;BME280;6683;48.506;9.050;2023-06-14T05:03:50;97719.16;;;13.18;47.12
13235;BME280;6683;48.506;9.050;2023-06-14T05:06:53;97721.28;;;13.34;46.88
13235;BME280;6683;48.506;9.050;2023-06-14T05:09:56;97720.53;;;13.52;46.82
13235;BME280;6683;48.506;9.050;2023-06-14T05:13:00;97717.34;;;13.68;46.88
13235;BME280;6683;48.506;9.050;2023-06-14T05:16:02;97718.84;;;13.82;46.81
13235;BME280;6683;48.506;9.050;2023-06-14T05:19:05;97719.69;;;14.01;46.78
13235;BME280;6683;48.506;9.050;2023-06-14T05:22:07;97727.47;;;14.20;46.70
13235;BME280;6683;48.506;9.050;2023-06-14T05:25:10;97713.97;;;14.40;46.67
13235;BME280;6683;48.506;9.050;2023-06-14T05:28:14;97713.53;;;14.61;46.58
13235;BME280;6683;48.506;9.050;2023-06-14T05:31:17;97719.38;;;14.81;46.37
13235;BME280;6683;48.506;9.050;2023-06-14T05:34:19;97725.94;;;14.97;46.04
13235;BME280;6683;48.506;9.050;2023-06-14T05:37:21;97720.09;;;15.18;46.10
13235;BME280;6683;48.506;9.050;2023-06-14T05:40:23;97722.44;;;15.38;45.81
13235;BME280;6683;48.506;9.050;2023-06-14T05:43:27;97724.97;;;15.62;45.84
13235;BME280;6683;48.506;9.050;2023-06-14T05:46:29;97725.78;;;15.86;45.58
13235;BME280;6683;48.506;9.050;2023-06-14T05:49:31;97723.94;;;16.10;45.36
13235;BME280;6683;48.506;9.050;2023-06-14T05:52:34;97720.91;;;16.29;45.05
13235;BME280;6683;48.506;9.050;2023-06-14T05:55:37;97723.19;;;16.49;45.01
13235;BME280;6683;48.506;9.050;2023-06-14T05:58:41;97727.09;;;16.69;44.76
13235;BME280;6683;48.506;9.050;2023-06-14T06:01:43;97728.53;;;16.89;44.40
13235;BME280;6683;48.506;9.050;2023-06-14T06:04:45;97735.78;;;17.05;44.18
13235;BME280;6683;48.506;9.050;2023-06-14T06:07:48;97733.41;;;17.20;44.02
13235;BME280;6683;48.506;9.050;2023-06-14T06:10:50;97725.31;;;17.31;43.78
13235;BME280;6683;48.506;9.050;2023-06-14T06:13:54;97728.03;;;17.48;43.82
13235;BME280;6683;48.506;9.050;2023-06-14T06:16:56;97725.16;;;17.66;43.63
13235;BME280;6683;48.506;9.050;2023-06-14T06:19:58;97724.09;;;17.84;43.56
13235;BME280;6683;48.506;9.050;2023-06-14T06:23:00;97723.03;;;18.01;43.16
13235;BME280;6683;48.506;9.050;2023-06-14T06:26:03;97738.22;;;18.17;42.84
13235;BME280;6683;48.506;9.050;2023-06-14T06:29:07;97731.97;;;18.28;42.48
13235;BME280;6683;48.506;9.050;2023-06-14T06:32:10;97736.16;;;18.41;42.41
13235;BME280;6683;48.506;9.050;2023-06-14T06:35:12;97741.94;;;18.55;42.00
13235;BME280;6683;48.506;9.050;2023-06-14T06:38:14;97738.66;;;18.69;41.85
13235;BME280;6683;48.506;9.050;2023-06-14T06:41:16;97743.38;;;18.84;41.60
13235;BME280;6683;48.506;9.050;2023-06-14T06:44:20;97737.66;;;18.97;41.29
13235;BME280;6683;48.506;9.050;2023-06-14T06:47:22;97738.69;;;19.17;41.25
13235;BME280;6683;48.506;9.050;2023-06-14T06:50:25;97730.63;;;19.39;40.91
13235;BME280;6683;48.506;9.050;2023-06-14T06:53:28;97732.94;;;19.57;40.55
13235;BME280;6683;48.506;9.050;2023-06-14T06:56:30;97735.81;;;19.77;40.30
13235;BME280;6683;48.506;9.050;2023-06-14T06:59:34;97739.66;;;19.97;40.14
13235;BME280;6683;48.506;9.050;2023-06-14T07:02:36;97733.66;;;20.16;39.78
13235;BME280;6683;48.506;9.050;2023-06-14T07:05:39;97741.56;;;20.33;39.39
13235;BME280;6683;48.506;9.050;2023-06-14T07:08:41;97733.06;;;20.46;38.88
13235;BME280;6683;48.506;9.050;2023-06-14T07:11:44;97733.38;;;20.54;38.42
13235;BME280;6683;48.506;9.050;2023-06-14T07:14:48;97737.19;;;20.73;38.40
13235;BME280;6683;48.506;9.050;2023-06-14T07:17:50;97739.41;;;20.97;38.38
13235;BME280;6683;48.506;9.050;2023-06-14T07:20:53;97743.00;;;21.17;38.06
13235;BME280;6683;48.506;9.050;2023-06-14T07:23:56;97742.81;;;21.44;37.92
13235;BME280;6683;48.506;9.050;2023-06-14T07:26:58;97748.19;;;21.69;37.58
13235;BME280;6683;48.506;9.050;2023-06-14T07:30:02;97749.00;;;21.95;36.58
13235;BME280;6683;48.506;9.050;2023-06-14T07:33:05;97749.28;;;22.18;36.49
13235;BME280;6683;48.506;9.050;2023-06-14T07:36:09;97749.22;;;22.44;36.20
13235;BME280;6683;48.506;9.050;2023-06-14T07:39:12;97751.63;;;22.65;36.06
13235;BME280;6683;48.506;9.050;2023-06-14T07:42:14;97745.63;;;22.83;35.72
13235;BME280;6683;48.506;9.050;2023-06-14T07:45:18;97753.38;;;22.95;35.54
13235;BME280;6683;48.506;9.050;2023-06-14T07:48:20;97745.22;;;23.10;35.20
13235;BME280;6683;48.506;9.050;2023-06-14T07:51:23;97744.31;;;23.30;34.89
13235;BME280;6683;48.506;9.050;2023-06-14T07:54:25;97742.59;;;23.49;34.78
13235;BME280;6683;48.506;9.050;2023-06-14T07:57:28;97748.13;;;23.67;34.45
13235;BME280;6683;48.506;9.050;2023-06-14T08:00:32;97740.72;;;23.83;34.45
13235;BME280;6683;48.506;9.050;2023-06-14T08:03:35;97738.72;;;23.99;34.29
13235;BME280;6683;48.506;9.050;2023-06-14T08:06:37;97742.06;;;24.19;34.12
13235;BME280;6683;48.506;9.050;2023-06-14T08:09:39;97734.03;;;24.38;33.69
13235;BME280;6683;48.506;9.050;2023-06-14T08:12:42;97744.38;;;24.54;33.18
13235;BME280;6683;48.506;9.050;2023-06-14T08:15:46;97732.09;;;24.67;33.43
13235;BME280;6683;48.506;9.050;2023-06-14T08:18:48;97736.75;;;24.85;33.19
13235;BME280;6683;48.506;9.050;2023-06-14T08:21:51;97735.75;;;25.00;33.07
13235;BME280;6683;48.506;9.050;2023-06-14T08:24:55;97736.63;;;25.14;32.75
13235;BME280;6683;48.506;9.050;2023-06-14T08:27:58;97733.16;;;25.32;32.59
13235;BME280;6683;48.506;9.050;2023-06-14T08:31:02;97731.88;;;25.48;31.97
13235;BME280;6683;48.506;9.050;2023-06-14T08:34:05;97737.03;;;25.63;31.67
13235;BME280;6683;48.506;9.050;2023-06-14T08:37:07;97733.50;;;25.81;30.97
13235;BME280;6683;48.506;9.050;2023-06-14T08:40:22;97735.34;;;25.99;30.33
13235;BME280;6683;48.506;9.050;2023-06-14T08:43:24;97737.03;;;26.14;29.74
13235;BME280;6683;48.506;9.050;2023-06-14T08:46:32;97741.66;;;26.27;29.12
13235;BME280;6683;48.506;9.050;2023-06-14T08:49:37;97742.78;;;26.40;29.19
13235;BME280;6683;48.506;9.050;2023-06-14T08:52:42;97744.41;;;26.54;28.80
13235;BME280;6683;48.506;9.050;2023-06-14T08:55:50;97732.97;;;26.71;28.38
13235;BME280;6683;48.506;9.050;2023-06-14T08:58:54;97743.22;;;26.87;28.15
13235;BME280;6683;48.506;9.050;2023-06-14T09:01:58;97740.72;;;27.05;27.90
13235;BME280;6683;48.506;9.050;2023-06-14T09:05:01;97740.41;;;27.20;28.00
13235;BME280;6683;48.506;9.050;2023-06-14T09:08:03;97744.72;;;27.34;27.43
13235;BME280;6683;48.506;9.050;2023-06-14T09:11:06;97745.38;;;27.40;27.29
13235;BME280;6683;48.506;9.050;2023-06-14T09:14:08;97742.75;;;27.48;27.22
13235;BME280;6683;48.506;9.050;2023-06-14T09:17:15;97742.00;;;27.56;27.03
13235;BME280;6683;48.506;9.050;2023-06-14T09:20:18;97742.25;;;27.68;26.55
13235;BME280;6683;48.506;9.050;2023-06-14T09:23:21;97744.94;;;27.82;26.60
13235;BME280;6683;48.506;9.050;2023-06-14T09:26:23;97732.94;;;27.97;26.82
13235;BME280;6683;48.506;9.050;2023-06-14T09:29:28;97748.97;;;28.07;26.50
13235;BME280;6683;48.506;9.050;2023-06-14T09:32:37;97734.31;;;28.16;26.56
13235;BME280;6683;48.506;9.050;2023-06-14T09:35:39;97743.31;;;28.25;26.17
13235;BME280;6683;48.506;9.050;2023-06-14T09:38:42;97733.31;;;28.34;26.12
13235;BME280;6683;48.506;9.050;2023-06-14T09:41:44;97735.13;;;28.47;25.72
13235;BME280;6683;48.506;9.050;2023-06-14T09:44:48;97744.78;;;28.62;25.84
13235;BME280;6683;48.506;9.050;2023-06-14T09:47:52;97746.13;;;28.73;25.54
13235;BME280;6683;48.506;9.050;2023-06-14T09:50:55;97735.13;;;28.78;24.91
13235;BME280;6683;48.506;9.050;2023-06-14T09:54:01;97735.13;;;28.78;24.46
13235;BME280;6683;48.506;9.050;2023-06-14T09:57:06;97737.19;;;28.81;24.69
13235;BME280;6683;48.506;9.050;2023-06-14T10:00:14;97733.06;;;28.84;24.08
13235;BME280;6683;48.506;9.050;2023-06-14T10:03:24;97729.41;;;28.88;24.38
13235;BME280;6683;48.506;9.050;2023-06-14T10:06:28;97729.41;;;28.97;24.11
13235;BME280;6683;48.506;9.050;2023-06-14T10:09:31;97721.91;;;29.02;23.94
13235;BME280;6683;48.506;9.050;2023-06-14T10:12:34;97720.50;;;29.13;24.05
13235;BME280;6683;48.506;9.050;2023-06-14T10:15:45;97720.22;;;29.23;23.57
13235;BME280;6683;48.506;9.050;2023-06-14T10:19:03;97719.28;;;29.37;23.34
13235;BME280;6683;48.506;9.050;2023-06-14T10:22:12;97719.75;;;29.39;23.12
13235;BME280;6683;48.506;9.050;2023-06-14T10:25:27;97728.06;;;29.34;22.95
13235;BME280;6683;48.506;9.050;2023-06-14T10:28:30;97726.31;;;29.20;22.98
13235;BME280;6683;48.506;9.050;2023-06-14T10:31:41;97713.66;;;29.16;23.26
13235;BME280;6683;48.506;9.050;2023-06-14T10:34:53;97724.53;;;29.33;22.87
13235;BME280;6683;48.506;9.050;2023-06-14T10:38:03;97724.38;;;29.47;22.32
13235;BME280;6683;48.506;9.050;2023-06-14T10:41:08;97721.69;;;29.64;22.34
13235;BME280;6683;48.506;9.050;2023-06-14T10:44:39;97711.91;;;29.88;22.14
13235;BME280;6683;48.506;9.050;2023-06-14T10:47:42;97724.38;;;29.98;21.81
13235;BME280;6683;48.506;9.050;2023-06-14T10:50:47;97713.47;;;29.98;21.67
13235;BME280;6683;48.506;9.050;2023-06-14T10:53:51;97717.50;;;30.00;21.35
13235;BME280;6683;48.506;9.050;2023-06-14T10:56:54;97708.06;;;29.89;21.61
13235;BME280;6683;48.506;9.050;2023-06-14T10:59:56;97710.94;;;29.67;21.30
13235;BME280;6683;48.506;9.050;2023-06-14T11:06:54;97715.44;;;29.72;21.00
13235;BME280;6683;48.506;9.050;2023-06-14T11:10:16;97721.22;;;29.79;21.24
13235;BME280;6683;48.506;9.050;2023-06-14T11:13:25;97704.22;;;29.90;20.58
13235;BME280;6683;48.506;9.050;2023-06-14T11:16:30;97706.13;;;29.98;20.83
13235;BME280;6683;48.506;9.050;2023-06-14T11:19:34;97702.41;;;30.12;20.50
13235;BME280;6683;48.506;9.050;2023-06-14T11:22:41;97704.13;;;30.33;20.29
13235;BME280;6683;48.506;9.050;2023-06-14T11:25:49;97706.50;;;30.43;19.96
13235;BME280;6683;48.506;9.050;2023-06-14T11:28:56;97706.09;;;30.62;19.74
13235;BME280;6683;48.506;9.050;2023-06-14T11:31:59;97698.44;;;30.85;19.46
13235;BME280;6683;48.506;9.050;2023-06-14T11:35:02;97695.44;;;30.77;19.88
13235;BME280;6683;48.506;9.050;2023-06-14T11:38:07;97698.19;;;30.69;19.81
13235;BME280;6683;48.506;9.050;2023-06-14T11:41:09;97692.72;;;30.77;19.87
13235;BME280;6683;48.506;9.050;2023-06-14T11:44:12;97695.56;;;30.90;19.50
13235;BME280;6683;48.506;9.050;2023-06-14T11:47:15;97695.84;;;30.97;19.38
13235;BME280;6683;48.506;9.050;2023-06-14T11:50:18;97699.84;;;30.99;19.20
13235;BME280;6683;48.506;9.050;2023-06-14T11:53:23;97684.34;;;30.91;19.19
13235;BME280;6683;48.506;9.050;2023-06-14T11:56:26;97701.75;;;30.99;19.19
13235;BME280;6683;48.506;9.050;2023-06-14T11:59:29;97694.81;;;31.10;19.14
13235;BME280;6683;48.506;9.050;2023-06-14T12:02:32;97697.94;;;31.20;19.08
13235;BME280;6683;48.506;9.050;2023-06-14T12:05:34;97692.25;;;31.25;18.88
13235;BME280;6683;48.506;9.050;2023-06-14T12:08:39;97680.13;;;31.23;18.80
13235;BME280;6683;48.506;9.050;2023-06-14T12:11:41;97691.59;;;31.08;18.95
13235;BME280;6683;48.506;9.050;2023-06-14T12:14:44;97691.25;;;31.09;18.79
13235;BME280;6683;48.506;9.050;2023-06-14T12:17:46;97685.41;;;31.19;18.72
13235;BME280;6683;48.506;9.050;2023-06-14T12:20:50;97688.41;;;31.26;18.47
13235;BME280;6683;48.506;9.050;2023-06-14T12:23:54;97682.91;;;31.35;18.39
13235;BME280;6683;48.506;9.050;2023-06-14T12:26:58;97681.09;;;31.39;18.09
13235;BME280;6683;48.506;9.050;2023-06-14T12:30:01;97674.69;;;31.43;18.33
13235;BME280;6683;48.506;9.050;2023-06-14T12:33:05;97670.94;;;31.48;18.27
13235;BME280;6683;48.506;9.050;2023-06-14T12:36:09;97670.28;;;31.51;18.17
13235;BME280;6683;48.506;9.050;2023-06-14T12:39:13;97677.56;;;31.59;18.21
13235;BME280;6683;48.506;9.050;2023-06-14T12:42:15;97681.31;;;31.54;17.92
13235;BME280;6683;48.506;9.050;2023-06-14T12:45:18;97679.03;;;31.57;18.06
13235;BME280;6683;48.506;9.050;2023-06-14T12:48:21;97669.63;;;31.54;18.06
13235;BME280;6683;48.506;9.050;2023-06-14T12:51:23;97669.63;;;31.54;17.88
13235;BME280;6683;48.506;9.050;2023-06-14T12:54:27;97680.72;;;31.49;18.11
13235;BME280;6683;48.506;9.050;2023-06-14T12:57:30;97691.38;;;31.42;18.38
13235;BME280;6683;48.506;9.050;2023-06-14T13:00:32;97696.53;;;31.35;18.15
13235;BME280;6683;48.506;9.050;2023-06-14T13:03:35;97681.63;;;31.32;18.21
13235;BME280;6683;48.506;9.050;2023-06-14T13:06:37;97689.22;;;31.27;18.34
13235;BME280;6683;48.506;9.050;2023-06-14T13:09:40;97685.16;;;31.33;17.97
13235;BME280;6683;48.506;9.050;2023-06-14T13:12:43;97684.94;;;31.38;17.70
13235;BME280;6683;48.506;9.050;2023-06-14T13:15:45;97691.75;;;31.32;17.83
13235;BME280;6683;48.506;9.050;2023-06-14T13:18:49;97690.69;;;31.24;18.05
13235;BME280;6683;48.506;9.050;2023-06-14T13:21:51;97685.56;;;31.23;18.04
13235;BME280;6683;48.506;9.050;2023-06-14T13:24:55;97676.94;;;31.21;18.18
13235;BME280;6683;48.506;9.050;2023-06-14T13:27:57;97679.78;;;31.24;18.42
13235;BME280;6683;48.506;9.050;2023-06-14T13:31:00;97686.63;;;31.30;18.33
13235;BME280;6683;48.506;9.050;2023-06-14T13:34:02;97680.38;;;31.30;18.29
13235;BME280;6683;48.506;9.050;2023-06-14T13:37:05;97681.69;;;31.24;18.37
13235;BME280;6683;48.506;9.050;2023-06-14T13:40:11;97685.81;;;31.09;18.33
13235;BME280;6683;48.506;9.050;2023-06-14T13:43:14;97677.69;;;31.01;18.31
13235;BME280;6683;48.506;9.050;2023-06-14T13:46:16;97680.00;;;30.90;18.50
13235;BME280;6683;48.506;9.050;2023-06-14T13:49:19;97682.88;;;30.94;18.48
13235;BME280;6683;48.506;9.050;2023-06-14T13:52:21;97670.66;;;31.00;18.53
13235;BME280;6683;48.506;9.050;2023-06-14T13:55:25;97671.06;;;31.10;18.50
13235;BME280;6683;48.506;9.050;2023-06-14T13:58:27;97664.41;;;31.20;18.44
13235;BME280;6683;48.506;9.050;2023-06-14T14:01:30;97675.59;;;31.27;18.46
13235;BME280;6683;48.506;9.050;2023-06-14T14:04:33;97671.84;;;31.31;18.31
13235;BME280;6683;48.506;9.050;2023-06-14T14:07:36;97674.56;;;31.31;18.21
13235;BME280;6683;48.506;9.050;2023-06-14T14:10:40;97673.16;;;31.25;18.02
13235;BME280;6683;48.506;9.050;2023-06-14T14:13:42;97665.84;;;31.17;17.91
13235;BME280;6683;48.506;9.050;2023-06-14T14:16:45;97669.97;;;31.03;18.12
13235;BME280;6683;48.506;9.050;2023-06-14T14:19:47;97669.44;;;30.89;17.94
13235;BME280;6683;48.506;9.050;2023-06-14T14:22:50;97667.06;;;30.78;18.28
13235;BME280;6683;48.506;9.050;2023-06-14T14:25:53;97665.38;;;30.65;18.48
13235;BME280;6683;48.506;9.050;2023-06-14T14:28:55;97660.91;;;30.61;18.30
13235;BME280;6683;48.506;9.050;2023-06-14T14:31:57;97660.16;;;30.52;18.43
13235;BME280;6683;48.506;9.050;2023-06-14T14:35:00;97664.72;;;30.39;18.59
13235;BME280;6683;48.506;9.050;2023-06-14T14:38:02;97668.59;;;30.30;18.62
13235;BME280;6683;48.506;9.050;2023-06-14T14:41:07;97672.59;;;30.24;18.63
13235;BME280;6683;48.506;9.050;2023-06-14T14:44:09;97676.63;;;30.18;18.73
13235;BME280;6683;48.506;9.050;2023-06-14T14:47:12;97662.88;;;30.14;19.04
13235;BME280;6683;48.506;9.050;2023-06-14T14:50:14;97669.91;;;30.07;18.65
13235;BME280;6683;48.506;9.050;2023-06-14T14:53:17;97669.78;;;30.03;18.99
13235;BME280;6683;48.506;9.050;2023-06-14T14:56:23;97672.66;;;29.98;19.04
13235;BME280;6683;48.506;9.050;2023-06-14T14:59:27;97669.66;;;29.91;18.92
13235;BME280;6683;48.506;9.050;2023-06-14T15:02:29;97668.88;;;29.82;18.90
13235;BME280;6683;48.506;9.050;2023-06-14T15:05:31;97673.00;;;29.71;19.33
13235;BME280;6683;48.506;9.050;2023-06-14T15:08:33;97670.94;;;29.68;19.07
13235;BME280;6683;48.506;9.050;2023-06-14T15:11:37;97672.84;;;29.67;19.00
13235;BME280;6683;48.506;9.050;2023-06-14T15:14:39;97676.38;;;29.68;19.19
13235;BME280;6683;48.506;9.050;2023-06-14T15:17:42;97674.94;;;29.70;19.25
13235;BME280;6683;48.506;9.050;2023-06-14T15:20:44;97680.06;;;29.72;19.11
13235;BME280;6683;48.506;9.050;2023-06-14T15:23:46;97668.69;;;29.70;19.18
13235;BME280;6683;48.506;9.050;2023-06-14T15:26:50;97675.94;;;29.74;19.60
13235;BME280;6683;48.506;9.050;2023-06-14T15:29:52;97666.63;;;29.84;19.42
13235;BME280;6683;48.506;9.050;2023-06-14T15:32:55;97676.38;;;29.93;19.61
13235;BME280;6683;48.506;9.050;2023-06-14T15:35:57;97667.69;;;30.00;19.52
13235;BME280;6683;48.506;9.050;2023-06-14T15:38:59;97675.19;;;30.12;19.60
13235;BME280;6683;48.506;9.050;2023-06-14T15:42:03;97669.72;;;30.20;19.46
13235;BME280;6683;48.506;9.050;2023-06-14T15:45:07;97670.97;;;30.31;19.69
13235;BME280;6683;48.506;9.050;2023-06-14T15:48:09;97674.47;;;30.40;19.13
13235;BME280;6683;48.506;9.050;2023-06-14T15:51:12;97679.88;;;30.49;19.13
13235;BME280;6683;48.506;9.050;2023-06-14T15:54:14;97672.94;;;30.60;19.16
13235;BME280;6683;48.506;9.050;2023-06-14T15:57:18;97668.09;;;30.65;18.82
13235;BME280;6683;48.506;9.050;2023-06-14T16:00:21;97667.00;;;30.66;18.81
13235;BME280;6683;48.506;9.050;2023-06-14T16:03:26;97662.19;;;30.63;18.98
13235;BME280;6683;48.506;9.050;2023-06-14T16:06:28;97666.69;;;30.59;18.89
13235;BME280;6683;48.506;9.050;2023-06-14T16:09:30;97667.81;;;30.58;18.69
13235;BME280;6683;48.506;9.050;2023-06-14T16:12:34;97668.28;;;30.60;18.57
13235;BME280;6683;48.506;9.050;2023-06-14T16:15:36;97668.13;;;30.57;18.65
13235;BME280;6683;48.506;9.050;2023-06-14T16:18:38;97668.19;;;30.48;18.54
13235;BME280;6683;48.506;9.050;2023-06-14T16:21:41;97676.22;;;30.45;18.86
13235;BME280;6683;48.506;9.050;2023-06-14T16:24:44;97681.19;;;30.43;19.08
13235;BME280;6683;48.506;9.050;2023-06-14T16:27:48;97682.63;;;30.40;19.22